createdAt,value
2023-03-06T00:01:20.434Z,89.30
2023-03-06T00:03:46.918Z,68.30
2023-03-06T00:06:13.407Z,71.90
2023-03-06T00:08:42.258Z,63.40
2023-03-06T00:11:14.223Z,75.90
2023-03-06T00:13:45.630Z,80.70
2023-03-06T00:16:14.701Z,71.40
2023-03-06T00:18:43.368Z,74.90
2023-03-06T00:21:14.744Z,75.60
2023-03-06T00:23:41.470Z,76.30
2023-03-06T00:26:10.899Z,73.00
2023-03-06T00:28:41.628Z,74.20
2023-03-06T00:31:12.918Z,71.80
2023-03-06T00:33:42.871Z,67.30
2023-03-06T00:36:11.966Z,78.90
2023-03-06T00:38:39.618Z,76.20
2023-03-06T00:41:10.268Z,73.70
2023-03-06T00:43:37.285Z,74.60
2023-03-06T00:46:05.095Z,76.30
2023-03-06T00:48:35.450Z,79.10
2023-03-06T00:51:04.508Z,75.70
2023-03-06T00:53:35.561Z,87.10
2023-03-06T00:56:02.005Z,84.80
2023-03-06T00:58:33.066Z,86.50
2023-03-06T01:01:02.612Z,83.50
2023-03-06T01:03:31.551Z,80.10
2023-03-06T01:06:02.939Z,82.90
2023-03-06T01:08:31.775Z,78.20
2023-03-06T02:13:55.317Z,56.80
2023-03-06T02:18:52.860Z,50.00
2023-03-06T02:21:26.644Z,48.70
2023-03-06T02:24:23.620Z,47.60
2023-03-06T02:26:54.081Z,52.10
2023-03-06T02:29:25.398Z,51.60
2023-03-06T02:31:56.066Z,50.90
2023-03-06T02:34:27.236Z,52.60
2023-03-06T02:37:00.158Z,52.70
2023-03-06T02:39:31.782Z,50.70
2023-03-06T02:42:00.492Z,49.10
2023-03-06T02:44:32.281Z,46.90
2023-03-06T02:47:01.382Z,56.00
2023-03-06T02:49:32.971Z,57.10
2023-03-06T02:52:02.039Z,64.00
2023-03-06T02:54:31.062Z,64.10
2023-03-06T02:57:00.367Z,67.50
2023-03-06T02:59:27.158Z,74.80
2023-03-06T03:02:01.953Z,69.80
2023-03-06T03:04:28.422Z,64.50
2023-03-06T03:06:55.701Z,66.80
2023-03-06T03:09:22.436Z,67.80
2023-03-06T03:11:48.858Z,77.00
2023-03-06T03:14:20.316Z,66.70
2023-03-06T03:16:50.115Z,64.50
2023-03-06T03:19:17.209Z,68.00
2023-03-06T03:21:43.717Z,67.20
2023-03-06T03:24:13.072Z,69.90
2023-03-06T03:26:44.321Z,48.70
2023-03-06T03:29:13.838Z,66.50
2023-03-06T03:31:40.492Z,67.30
2023-03-06T03:34:11.905Z,71.30
2023-03-06T03:36:47.882Z,67.20
2023-03-06T03:39:14.850Z,61.20
2023-03-06T03:41:42.103Z,75.10
2023-03-06T03:44:09.444Z,75.30
2023-03-06T03:46:36.381Z,71.20
2023-03-06T03:49:03.453Z,75.50
2023-03-06T03:51:31.420Z,73.60
2023-03-06T03:53:58.433Z,77.60
2023-03-06T03:56:26.908Z,79.20
2023-03-06T03:59:00.858Z,78.20
2023-03-06T04:01:34.112Z,74.90
2023-03-06T04:04:00.780Z,81.50
2023-03-06T04:06:27.547Z,80.00
2023-03-06T04:08:57.210Z,75.30
2023-03-06T04:11:25.878Z,80.40
2023-03-06T04:13:56.034Z,85.40
2023-03-06T04:16:22.519Z,80.20
2023-03-06T04:18:49.911Z,81.50
2023-03-06T04:21:16.632Z,79.00
2023-03-06T04:23:48.041Z,81.60
2023-03-06T04:26:14.866Z,71.10
2023-03-06T04:28:43.933Z,83.00
2023-03-06T04:31:16.834Z,72.90
2023-03-06T04:33:43.545Z,75.70
2023-03-06T04:36:29.305Z,72.10
2023-03-06T04:38:59.333Z,68.60
2023-03-06T04:41:26.247Z,70.80
2023-03-06T04:43:57.320Z,77.00
2023-03-06T04:46:23.855Z,82.50
2023-03-06T04:48:55.115Z,87.40
2023-03-06T04:51:21.798Z,85.80
2023-03-06T04:53:51.035Z,79.00
2023-03-06T04:56:17.881Z,85.00
2023-03-06T04:58:49.362Z,68.00
2023-03-06T05:01:18.321Z,88.00
2023-03-06T05:03:49.125Z,82.50
2023-03-06T05:06:18.380Z,85.00
2023-03-06T05:08:47.579Z,88.60
2023-03-06T05:11:19.237Z,86.20
2023-03-06T05:13:53.326Z,79.40
2023-03-06T05:16:25.774Z,80.00
2023-03-06T05:18:57.778Z,85.90
2023-03-06T05:21:32.048Z,77.40
2023-03-06T05:24:00.538Z,80.60
2023-03-06T05:26:34.476Z,76.20
2023-03-06T05:29:04.109Z,81.90
2023-03-06T05:31:32.969Z,83.90
2023-03-06T05:34:04.163Z,71.60
2023-03-06T05:36:30.640Z,82.00
2023-03-06T05:39:02.294Z,82.80
2023-03-06T05:41:31.637Z,77.70
2023-03-06T05:43:58.271Z,77.60
2023-03-06T05:46:27.609Z,73.40
2023-03-06T05:48:54.744Z,79.40
2023-03-06T05:51:24.070Z,83.20
2023-03-06T05:54:00.957Z,77.60
2023-03-06T05:56:28.113Z,78.00
2023-03-06T05:58:57.013Z,61.10
2023-03-06T06:01:27.793Z,75.70
2023-03-06T06:03:54.937Z,73.30
2023-03-06T06:06:24.086Z,69.10
2023-03-06T06:08:50.824Z,77.90
2023-03-06T06:11:18.014Z,71.60
2023-03-06T06:13:48.780Z,74.50
2023-03-06T06:16:19.466Z,73.50
2023-03-06T06:18:53.213Z,72.80
2023-03-06T06:21:19.803Z,78.10
2023-03-06T06:23:49.251Z,67.60
2023-03-06T06:26:15.725Z,69.50
2023-03-06T06:28:44.649Z,56.40
2023-03-06T06:31:14.335Z,57.60
2023-03-06T06:33:41.353Z,54.40
2023-03-06T06:36:21.380Z,54.60
2023-03-06T06:38:50.585Z,54.90
2023-03-06T06:44:13.775Z,47.10
2023-03-06T06:49:34.621Z,43.00
2023-03-06T06:52:03.632Z,51.00
2023-03-06T06:54:32.442Z,53.80
2023-03-06T06:57:03.977Z,52.70
2023-03-06T06:59:32.881Z,54.90
2023-03-06T07:01:59.455Z,59.10
2023-03-06T07:04:28.412Z,56.60
2023-03-06T07:06:58.616Z,53.90
2023-03-06T07:09:25.104Z,53.50
2023-03-06T07:11:54.002Z,51.40
2023-03-06T07:14:23.803Z,44.40
2023-03-06T07:16:52.538Z,47.20
2023-03-06T07:19:21.329Z,48.30
2023-03-06T07:21:47.984Z,42.80
2023-03-06T07:24:19.197Z,41.50
2023-03-06T07:26:48.095Z,42.40
2023-03-06T07:29:15.087Z,40.70
2023-03-06T07:31:44.222Z,46.10
2023-03-06T07:34:14.565Z,42.50
2023-03-06T07:36:41.219Z,37.90
2023-03-06T07:39:08.066Z,40.10
2023-03-06T07:41:36.684Z,43.10
2023-03-06T07:44:03.753Z,40.50
2023-03-06T07:46:35.599Z,44.70
2023-03-06T07:49:02.284Z,47.20
2023-03-06T07:51:33.607Z,46.00
2023-03-06T07:54:02.496Z,45.30
2023-03-06T07:56:34.301Z,42.00
2023-03-06T07:59:03.745Z,39.00
2023-03-06T08:01:32.491Z,40.90
2023-03-06T08:04:00.509Z,44.80
2023-03-06T08:06:29.405Z,39.60
2023-03-06T08:09:00.903Z,43.00
2023-03-06T08:11:29.668Z,39.30
2023-03-06T08:13:59.244Z,42.40
2023-03-06T08:16:33.119Z,41.30
2023-03-06T08:19:02.054Z,47.00
2023-03-06T08:21:28.525Z,50.30
2023-03-06T08:23:55.653Z,49.00
2023-03-06T08:26:27.769Z,44.70
2023-03-06T08:29:01.305Z,40.60
2023-03-06T08:31:29.576Z,40.70
2023-03-06T08:33:59.349Z,38.80
2023-03-06T08:36:30.747Z,37.40
2023-03-06T08:38:59.532Z,36.70
2023-03-06T08:41:31.563Z,43.80
2023-03-06T08:43:58.352Z,39.90
2023-03-06T08:46:30.431Z,35.80
2023-03-06T08:49:01.733Z,28.90
2023-03-06T08:51:35.338Z,36.90
2023-03-06T08:54:04.274Z,30.90
2023-03-06T08:56:33.005Z,31.00
2023-03-06T08:59:04.498Z,27.30
2023-03-06T09:01:35.995Z,29.00
2023-03-06T09:04:06.352Z,30.40
2023-03-06T09:06:38.030Z,30.60
2023-03-06T09:09:05.069Z,32.00
2023-03-06T09:11:34.112Z,44.60
2023-03-06T09:14:00.625Z,38.40
2023-03-06T09:16:32.023Z,33.90
2023-03-06T09:19:01.176Z,31.00
2023-03-06T09:21:27.949Z,37.70
2023-03-06T09:24:01.036Z,41.20
2023-03-06T09:26:39.729Z,35.90
2023-03-06T09:29:12.435Z,35.00
2023-03-06T09:31:41.375Z,38.20
2023-03-06T09:34:08.034Z,39.00
2023-03-06T09:36:53.365Z,39.30
2023-03-06T09:39:22.228Z,34.20
2023-03-06T09:41:51.582Z,37.70
2023-03-06T09:44:25.409Z,30.80
2023-03-06T09:47:28.400Z,32.10
2023-03-06T09:50:16.265Z,37.00
2023-03-06T09:53:01.098Z,31.90
2023-03-06T09:55:31.741Z,33.80
2023-03-06T09:58:00.722Z,31.20
2023-03-06T10:00:36.128Z,31.50
2023-03-06T10:03:24.467Z,31.70
2023-03-06T10:06:02.619Z,31.10
2023-03-06T10:08:37.425Z,32.90
2023-03-06T10:11:10.473Z,31.20
2023-03-06T10:13:46.349Z,36.00
2023-03-06T10:16:31.842Z,35.30
2023-03-06T10:19:06.661Z,38.10
2023-03-06T10:21:42.801Z,35.30
2023-03-06T10:24:28.156Z,35.80
2023-03-06T10:27:02.760Z,37.70
2023-03-06T10:29:47.630Z,40.20
2023-03-06T10:32:48.925Z,37.30
2023-03-06T10:35:24.891Z,39.30
2023-03-06T10:38:18.679Z,39.70
2023-03-06T10:41:11.224Z,38.10
2023-03-06T10:43:59.159Z,37.60
2023-03-06T10:46:36.197Z,34.50
2023-03-06T10:49:35.005Z,35.40
2023-03-06T10:52:08.940Z,30.50
2023-03-06T10:54:38.872Z,36.90
2023-03-06T10:57:28.898Z,39.00
2023-03-06T11:00:04.601Z,34.30
2023-03-06T11:02:37.891Z,30.30
2023-03-06T11:05:22.805Z,35.10
2023-03-06T11:08:00.262Z,36.40
2023-03-06T11:10:31.227Z,37.50
2023-03-06T11:13:21.725Z,29.90
2023-03-06T11:16:06.913Z,32.00
2023-03-06T11:18:42.183Z,35.60
2023-03-06T11:21:32.967Z,32.50
2023-03-06T11:24:23.997Z,34.70
2023-03-06T11:26:59.005Z,34.30
2023-03-06T11:29:38.779Z,31.30
2023-03-06T11:32:15.476Z,32.30
2023-03-06T11:34:56.977Z,31.80
2023-03-06T11:37:42.178Z,32.50
2023-03-06T11:40:11.527Z,35.30
2023-03-06T11:42:55.640Z,30.50
2023-03-06T11:45:28.072Z,34.80
2023-03-06T11:48:01.032Z,30.30
2023-03-06T11:50:45.028Z,31.90
2023-03-06T11:53:15.681Z,34.00
2023-03-06T11:55:50.232Z,27.60
2023-03-06T11:58:44.095Z,27.50
2023-03-06T12:01:26.416Z,29.70
2023-03-06T12:04:36.213Z,24.10
2023-03-06T12:07:28.312Z,26.20
2023-03-06T12:10:31.763Z,30.90
2023-03-06T12:13:34.717Z,30.10
2023-03-06T12:16:18.114Z,27.20
2023-03-06T12:19:03.328Z,26.60
2023-03-06T12:21:44.920Z,30.40
2023-03-06T12:24:30.778Z,32.10
2023-03-06T12:27:16.433Z,30.80
2023-03-06T12:30:09.453Z,31.70
2023-03-06T12:32:41.256Z,32.40
2023-03-06T12:35:29.003Z,29.30
2023-03-06T12:38:06.073Z,28.70
2023-03-06T12:40:46.695Z,32.10
2023-03-06T12:43:22.917Z,28.00
2023-03-06T12:45:57.801Z,27.50
2023-03-06T12:48:30.286Z,23.80
2023-03-06T12:50:57.157Z,24.60
2023-03-06T12:53:31.761Z,24.10
2023-03-06T12:56:01.890Z,27.90
2023-03-06T12:58:33.009Z,28.10
2023-03-06T13:01:05.452Z,26.40
2023-03-06T13:03:53.604Z,24.10
2023-03-06T13:06:49.889Z,23.40
2023-03-06T13:26:25.034Z,24.30
2023-03-06T13:28:58.210Z,24.80
2023-03-06T13:31:28.521Z,23.50
2023-03-06T13:34:41.602Z,26.30
2023-03-06T13:37:23.281Z,23.60
2023-03-06T13:39:56.704Z,24.00
2023-03-06T13:42:58.093Z,28.30
2023-03-06T13:45:43.159Z,24.80
2023-03-06T13:48:43.106Z,21.40
2023-03-06T13:51:27.088Z,25.10
2023-03-06T13:54:10.152Z,23.70
2023-03-06T13:57:16.630Z,23.20
2023-03-06T14:00:15.112Z,26.10
2023-03-06T14:03:08.840Z,26.00
2023-03-06T14:05:48.831Z,29.90
2023-03-06T14:08:19.325Z,32.20
2023-03-06T14:10:57.836Z,32.10
2023-03-06T14:13:41.871Z,38.30
2023-03-06T14:16:23.273Z,38.30
2023-03-06T14:18:55.972Z,35.40
2023-03-06T14:21:31.926Z,40.50
2023-03-06T14:24:02.896Z,35.30
2023-03-06T14:26:41.676Z,36.00
2023-03-06T14:29:31.181Z,32.60
2023-03-06T14:32:12.118Z,24.00
2023-03-06T14:34:46.392Z,33.80
2023-03-06T14:37:21.686Z,33.80
2023-03-06T14:39:52.396Z,38.30
2023-03-06T14:42:26.882Z,35.10
2023-03-06T14:45:17.590Z,37.40
2023-03-06T14:47:52.779Z,41.30
2023-03-06T14:50:29.462Z,42.00
2023-03-06T14:53:16.837Z,43.00
2023-03-06T14:55:50.524Z,43.30
2023-03-06T14:58:26.378Z,42.10
2023-03-06T15:01:02.819Z,41.90
2023-03-06T15:03:52.476Z,36.00
2023-03-06T15:06:27.268Z,32.20
2023-03-06T15:09:07.593Z,35.20
2023-03-06T15:11:58.834Z,34.20
2023-03-06T15:14:40.981Z,31.30
2023-03-06T15:17:18.034Z,33.20
2023-03-06T15:19:48.757Z,32.10
2023-03-06T15:22:33.665Z,25.80
2023-03-06T15:25:15.932Z,30.20
2023-03-06T15:28:28.336Z,32.00
2023-03-06T15:31:03.681Z,31.50
2023-03-06T15:33:35.927Z,32.20
2023-03-06T15:36:06.234Z,35.00
2023-03-06T15:38:42.045Z,38.60
2023-03-06T15:41:39.749Z,38.20
2023-03-06T15:44:14.932Z,35.00
2023-03-06T15:46:42.974Z,38.80
2023-03-06T15:49:14.773Z,36.20
2023-03-06T15:51:42.901Z,40.30
2023-03-06T15:54:12.635Z,39.90
2023-03-06T15:56:47.922Z,37.20
2023-03-06T15:59:21.879Z,37.30
2023-03-06T16:01:50.890Z,35.50
2023-03-06T16:04:19.882Z,39.10
2023-03-06T16:06:50.404Z,38.10
2023-03-06T16:09:20.709Z,35.60
2023-03-06T16:11:52.266Z,33.40
2023-03-06T16:14:25.506Z,29.70
2023-03-06T16:16:54.341Z,28.50
2023-03-06T16:19:26.748Z,31.00
2023-03-06T16:21:59.157Z,33.10
2023-03-06T16:24:29.657Z,22.50
2023-03-06T16:27:00.544Z,32.40
2023-03-06T16:29:29.867Z,35.30
2023-03-06T16:32:01.938Z,32.10
2023-03-06T16:34:30.450Z,28.70
2023-03-06T16:37:01.139Z,30.80
2023-03-06T16:39:31.607Z,29.10
2023-03-06T16:42:02.106Z,32.90
2023-03-06T16:44:30.271Z,28.00
2023-03-06T16:47:04.505Z,29.30
2023-03-06T16:49:42.338Z,29.30
2023-03-06T16:52:13.341Z,25.20
2023-03-06T16:54:42.835Z,25.00
2023-03-06T16:57:15.263Z,24.40
2023-03-06T16:59:48.768Z,26.30
2023-03-06T17:02:17.110Z,30.20
2023-03-06T17:04:45.450Z,27.70
2023-03-06T17:07:15.772Z,31.20
2023-03-06T17:09:46.531Z,29.40
2023-03-06T17:12:17.432Z,30.40
2023-03-06T17:14:48.991Z,35.80
2023-03-06T17:17:17.681Z,22.90
2023-03-06T17:19:52.343Z,34.00
2023-03-06T17:22:23.486Z,34.60
2023-03-06T17:24:53.621Z,42.10
2023-03-06T17:27:23.881Z,41.80
2023-03-06T17:29:51.946Z,41.90
2023-03-06T17:32:20.179Z,42.90
2023-03-06T17:34:50.988Z,44.90
2023-03-06T17:37:24.182Z,39.60
2023-03-06T17:39:54.613Z,41.00
2023-03-06T17:42:25.334Z,44.40
2023-03-06T17:44:53.403Z,48.00
2023-03-06T17:47:26.396Z,45.00
2023-03-06T17:49:54.656Z,38.20
2023-03-06T17:52:22.824Z,32.10
2023-03-06T17:54:50.805Z,32.40
2023-03-06T17:57:19.128Z,30.40
2023-03-06T17:59:54.388Z,33.80
2023-03-06T18:02:24.817Z,34.00
2023-03-06T18:04:55.845Z,30.70
2023-03-06T18:07:26.879Z,35.80
2023-03-06T18:09:54.813Z,38.60
2023-03-06T18:12:25.210Z,39.80
2023-03-06T18:14:53.365Z,40.10
2023-03-06T18:17:23.593Z,47.40
2023-03-06T18:19:52.071Z,45.80
2023-03-06T18:22:22.681Z,55.30
2023-03-06T18:24:53.352Z,56.00
2023-03-06T18:27:21.873Z,58.60
2023-03-06T18:29:52.681Z,59.20
2023-03-06T18:32:26.553Z,63.20
2023-03-06T18:34:55.729Z,65.50
2023-03-06T18:37:26.566Z,68.60
2023-03-06T18:39:57.064Z,63.00
2023-03-06T18:42:27.748Z,59.60
2023-03-06T18:45:00.335Z,67.70
2023-03-06T18:47:28.609Z,65.40
2023-03-06T18:49:59.459Z,77.10
2023-03-06T18:52:29.794Z,75.00
2023-03-06T18:55:02.905Z,76.90
2023-03-06T18:57:31.118Z,73.70
2023-03-06T18:59:59.231Z,77.90
2023-03-06T19:02:29.957Z,78.90
2023-03-06T19:05:03.420Z,74.70
2023-03-06T19:07:31.713Z,82.70
2023-03-06T19:10:02.085Z,79.40
2023-03-06T19:12:35.458Z,77.00
2023-03-06T19:15:08.377Z,76.50
2023-03-06T19:17:38.634Z,65.80
2023-03-06T19:25:12.228Z,58.00
2023-03-06T19:27:44.927Z,69.10
2023-03-06T19:32:49.354Z,63.70
2023-03-06T19:35:20.206Z,67.10
2023-03-06T19:37:50.439Z,67.80
2023-03-06T19:40:18.734Z,72.20
2023-03-06T19:42:46.808Z,71.20
2023-03-06T19:45:17.082Z,69.50
2023-03-06T19:47:47.345Z,71.80
2023-03-06T19:50:17.486Z,82.50
2023-03-06T19:52:48.294Z,79.60
2023-03-06T19:55:16.137Z,77.70
2023-03-06T19:57:46.381Z,77.00
2023-03-06T20:00:17.799Z,79.10
2023-03-06T20:02:46.373Z,79.80
2023-03-06T20:05:21.977Z,84.60
2023-03-06T20:07:50.294Z,83.00
2023-03-06T20:10:18.291Z,77.90
2023-03-06T20:12:48.675Z,73.20
2023-03-06T20:15:18.982Z,73.90
2023-03-06T20:17:51.611Z,70.40
2023-03-06T20:20:19.652Z,60.30
2023-03-06T20:22:49.694Z,60.80
2023-03-06T20:25:20.466Z,62.90
2023-03-06T20:27:53.704Z,40.30
2023-03-06T20:30:24.333Z,59.90
2023-03-06T20:32:55.957Z,59.50
2023-03-06T20:35:30.910Z,56.00
2023-03-06T20:37:59.807Z,61.50
2023-03-06T20:40:27.961Z,53.40
2023-03-06T20:43:01.277Z,45.20
2023-03-06T20:45:32.918Z,45.80
2023-03-06T20:48:03.219Z,44.90
2023-03-06T20:50:31.168Z,46.50
2023-03-06T20:53:01.316Z,47.50
2023-03-06T20:55:31.470Z,49.40
2023-03-06T20:58:01.852Z,46.10
2023-03-06T21:00:32.629Z,49.00
2023-03-06T21:03:03.340Z,57.10
2023-03-06T21:05:33.991Z,53.60
2023-03-06T21:08:04.880Z,48.80
2023-03-06T21:10:33.310Z,36.60
2023-03-06T21:13:01.631Z,39.10
2023-03-06T21:15:32.216Z,35.00
2023-03-06T21:18:01.968Z,27.60
2023-03-06T21:20:30.491Z,25.90
2023-03-06T21:22:58.635Z,24.30
2023-03-06T21:25:30.004Z,23.30
2023-03-06T21:27:59.174Z,26.80
2023-03-06T21:30:28.299Z,22.80
2023-03-06T21:32:58.658Z,18.50
2023-03-06T21:35:26.825Z,23.80
2023-03-06T21:37:54.652Z,22.10
2023-03-06T21:40:25.134Z,20.80
2023-03-06T21:42:53.506Z,23.60
2023-03-06T21:45:21.391Z,22.00
2023-03-06T21:47:52.002Z,23.50
2023-03-06T21:50:22.193Z,25.40
2023-03-06T21:52:53.788Z,21.50
2023-03-06T21:55:21.962Z,13.60
2023-03-06T21:57:53.498Z,20.20
2023-03-06T22:00:23.960Z,15.90
2023-03-06T22:02:55.157Z,17.90
2023-03-06T22:05:24.692Z,17.30
2023-03-06T22:07:52.627Z,22.00
2023-03-06T22:10:22.783Z,22.80
2023-03-06T22:12:50.940Z,20.00
2023-03-06T22:15:20.447Z,19.10
2023-03-06T22:17:50.342Z,23.50
2023-03-06T22:20:18.818Z,21.30
2023-03-06T22:22:49.418Z,18.90
2023-03-06T22:25:17.516Z,17.50
2023-03-06T22:27:45.967Z,19.30
2023-03-06T22:30:14.107Z,18.10
2023-03-06T22:32:42.615Z,16.90
2023-03-06T22:35:10.622Z,16.80
2023-03-06T22:37:38.799Z,15.60
2023-03-06T22:40:07.165Z,14.60
2023-03-06T22:42:35.324Z,18.70
2023-03-06T22:45:03.580Z,16.80
2023-03-06T22:47:31.389Z,19.90
2023-03-06T22:49:59.450Z,17.90
2023-03-06T22:52:27.388Z,19.40
2023-03-06T22:54:57.548Z,22.90
2023-03-06T22:57:25.846Z,25.90
2023-03-06T22:59:53.927Z,22.10
2023-03-06T23:02:21.800Z,23.20
2023-03-06T23:04:53.301Z,29.50
2023-03-06T23:07:23.981Z,20.20
2023-03-06T23:10:03.889Z,21.30
2023-03-06T23:12:53.349Z,22.70
2023-03-06T23:15:40.157Z,24.00
2023-03-06T23:18:28.409Z,23.50
2023-03-06T23:21:17.590Z,24.00
2023-03-06T23:24:06.968Z,24.40
2023-03-06T23:26:35.436Z,23.40
2023-03-06T23:29:04.351Z,27.70
2023-03-06T23:31:32.541Z,26.10
2023-03-06T23:34:05.149Z,26.10
2023-03-06T23:39:03.437Z,26.20
2023-03-06T23:41:33.695Z,26.10
2023-03-06T23:46:34.494Z,24.80
2023-03-06T23:49:03.158Z,25.00
2023-03-06T23:51:33.815Z,25.20
2023-03-06T23:54:03.763Z,29.00
2023-03-06T23:56:31.743Z,31.50
2023-03-06T23:59:01.844Z,28.50
